Time;durP1;ratioP1;P1;durP2;ratioP2;P2;SDS_P1;SDS_P2;PMS_P1;PMS_P2;Temp;Humidity;BMP_temperature;BMP_pressure;BME280_temperature;BME280_humidity;BME280_pressure;Samples;Min_cycle;Max_cycle;Signal;HPM_P1;HPM_P2
2022/01/18 00:01:37;;;;;;;28.13;4.85;;;;;;;7.01;80.91;103714.50;5018559;28;20050;-75
2022/01/18 00:04:06;;;;;;;22.02;4.65;;;;;;;6.98;80.92;103718.81;5035617;28;20131;-75
2022/01/18 00:06:35;;;;;;;30.15;4.32;;;;;;;6.98;80.67;103728.38;5037830;28;20046;-75
2022/01/18 00:09:02;;;;;;;28.88;4.50;;;;;;;6.98;80.97;103720.53;5037800;28;20042;-75
2022/01/18 00:11:35;;;;;;;30.95;4.50;;;;;;;6.99;81.04;103727.56;5043201;28;20038;-75
2022/01/18 00:14:02;;;;;;;25.83;4.55;;;;;;;6.99;80.99;103730.19;5032233;28;20073;-69
2022/01/18 00:16:37;;;;;;;28.13;5.00;;;;;;;6.99;81.01;103732.78;5032098;28;20049;-71
2022/01/18 00:19:10;;;;;;;28.13;5.07;;;;;;;6.95;81.09;103734.44;5035011;28;20081;-71
2022/01/18 00:22:02;;;;;;;34.70;5.47;;;;;;;6.95;81.08;103744.94;5035141;28;20064;-70
2022/01/18 00:24:24;;;;;;;29.17;5.85;;;;;;;6.92;81.22;103749.19;5036546;28;20084;-71
2022/01/18 00:26:51;;;;;;;36.67;5.82;;;;;;;6.89;81.41;103743.84;5035915;28;20045;-68
2022/01/18 00:29:22;;;;;;;27.95;5.50;;;;;;;6.85;81.52;103742.88;5027729;28;20053;-68
2022/01/18 00:32:02;;;;;;;38.95;6.95;;;;;;;6.83;81.60;103745.44;5036842;28;20045;-68
2022/01/18 00:34:33;;;;;;;30.08;5.95;;;;;;;6.80;81.78;103740.09;5031033;28;20042;-68
2022/01/18 00:39:28;;;;;;;30.25;6.03;;;;;;;6.77;81.85;103731.25;5035215;28;20042;-70
2022/01/18 00:41:55;;;;;;;25.90;5.95;;;;;;;6.77;82.09;103741.72;5035201;28;20503;-70
2022/01/18 00:44:22;;;;;;;32.65;6.28;;;;;;;6.77;82.06;103744.34;5034535;28;20061;-71
2022/01/18 00:46:50;;;;;;;28.90;6.30;;;;;;;6.75;82.16;103740.78;5036535;28;20518;-71
2022/01/18 00:49:18;;;;;;;37.95;7.05;;;;;;;6.71;82.17;103747.66;5035831;28;20041;-65
2022/01/18 00:51:52;;;;;;;28.08;6.43;;;;;;;6.67;82.24;103756.25;5039147;28;20064;-67
2022/01/18 00:54:24;;;;;;;34.33;6.35;;;;;;;6.66;82.32;103751.88;5030115;28;20041;-66
2022/01/18 00:56:53;;;;;;;45.25;7.25;;;;;;;6.68;82.39;103760.66;5035876;28;20045;-68
2022/01/18 00:59:22;;;;;;;41.45;7.10;;;;;;;6.68;82.67;103748.47;5030681;28;20064;-72
2022/01/18 01:01:50;;;;;;;38.33;6.13;;;;;;;6.69;82.51;103741.47;5035189;28;20089;-72
2022/01/18 01:04:20;;;;;;;37.15;7.05;;;;;;;6.68;82.37;103750.19;5035061;28;20046;-70
2022/01/18 01:06:47;;;;;;;30.33;5.78;;;;;;;6.70;82.49;103743.25;5035818;28;20054;-69
2022/01/18 01:09:14;;;;;;;26.77;6.53;;;;;;;6.69;82.47;103757.22;5039489;28;20042;-71
2022/01/18 01:11:42;;;;;;;43.78;7.25;;;;;;;6.67;82.40;103751.94;5034814;28;20072;-70
2022/01/18 01:14:15;;;;;;;34.53;7.40;;;;;;;6.65;82.36;103753.59;5036939;28;20512;-71
2022/01/18 01:17:12;;;;;;;35.35;7.00;;;;;;;6.64;82.69;103759.69;5031957;28;20046;-70
2022/01/18 01:32:11;;;;;;;41.28;6.93;;;;;;;6.63;82.61;103751.78;5031732;28;20049;-71
2022/01/18 01:34:34;;;;;;;33.40;7.43;;;;;;;6.48;83.21;103739.06;5035688;28;20042;-71
2022/01/18 01:42:27;;;;;;;41.03;7.57;;;;;;;6.52;83.09;103752.31;5041094;28;20042;-69
2022/01/18 01:44:56;;;;;;;36.45;6.93;;;;;;;6.51;83.29;103741.78;5038661;28;20045;-72
2022/01/18 01:47:33;;;;;;;34.85;8.05;;;;;;;6.49;83.20;103746.09;5031351;28;20042;-72
2022/01/18 01:50:18;;;;;;;33.60;7.78;;;;;;;6.46;83.25;103745.97;5029445;28;20054;-70
2022/01/18 01:52:48;;;;;;;34.72;7.97;;;;;;;6.44;83.42;103745.94;5032172;28;20042;-70
2022/01/18 01:55:17;;;;;;;37.72;8.35;;;;;;;6.43;83.44;103757.25;5037431;28;20064;-71
2022/01/18 01:57:45;;;;;;;35.08;8.27;;;;;;;6.44;83.74;103753.78;5034760;28;20092;-71
2022/01/18 02:00:20;;;;;;;32.33;7.75;;;;;;;6.46;83.65;103757.31;5036835;28;20041;-70
2022/01/18 02:02:47;;;;;;;35.75;8.80;;;;;;;6.49;83.38;103753.94;5035446;28;20048;-72
2022/01/18 02:05:14;;;;;;;29.70;8.25;;;;;;;6.51;83.62;103744.41;5034639;28;20681;-71
2022/01/18 02:07:42;;;;;;;32.05;8.02;;;;;;;6.53;83.70;103748.84;5032949;28;20129;-72
2022/01/18 02:10:10;;;;;;;30.10;7.75;;;;;;;6.54;83.61;103754.97;5034170;28;20053;-72
2022/01/18 02:12:38;;;;;;;38.55;8.23;;;;;;;6.52;83.40;103754.94;5034523;28;20050;-70
2022/01/18 02:15:14;;;;;;;32.55;7.82;;;;;;;6.52;83.36;103756.66;5035652;28;20052;-71
2022/01/18 02:23:19;;;;;;;39.08;8.48;;;;;;;6.52;83.41;103746.16;5035143;28;20559;-71
2022/01/18 02:25:46;;;;;;;32.42;8.18;;;;;;;6.53;83.56;103742.69;5030924;28;20049;-72
2022/01/18 02:28:17;;;;;;;37.03;9.20;;;;;;;6.54;83.70;103741.88;5034136;28;20042;-73
2022/01/18 02:30:45;;;;;;;32.25;8.52;;;;;;;6.57;83.64;103746.31;5021874;28;20046;-71
2022/01/18 02:33:15;;;;;;;31.70;8.48;;;;;;;6.56;83.69;103736.69;5035677;28;20041;-71
2022/01/18 02:35:45;;;;;;;30.58;8.48;;;;;;;6.56;83.42;103748.06;5031642;28;20061;-71
2022/01/18 02:38:13;;;;;;;39.10;10.60;;;;;;;6.58;83.57;103742.84;5037422;28;20548;-71
2022/01/18 02:40:44;;;;;;;32.95;8.93;;;;;;;6.53;83.45;103748.84;5041797;28;20057;-71
2022/01/18 02:45:58;;;;;;;39.63;8.93;;;;;;;6.51;83.53;103752.28;5040271;28;20042;-71
2022/01/18 02:48:26;;;;;;;35.28;9.50;;;;;;;6.52;83.67;103751.41;5033778;28;20034;-70
2022/01/18 02:50:53;;;;;;;38.60;9.43;;;;;;;6.52;83.68;103752.31;5028702;28;20046;-71
2022/01/18 02:53:20;;;;;;;44.58;9.55;;;;;;;6.52;83.80;103748.78;5056310;28;20038;-70
2022/01/18 02:55:56;;;;;;;36.67;9.00;;;;;;;6.51;83.70;103742.66;5037749;28;20467;-70
2022/01/18 02:58:27;;;;;;;34.72;8.50;;;;;;;6.50;83.78;103748.75;5040588;28;20042;-71
2022/01/18 03:03:37;;;;;;;42.20;9.95;;;;;;;6.50;83.80;103737.38;5037169;28;20048;-72
2022/01/18 03:06:08;;;;;;;43.47;10.25;;;;;;;6.49;83.74;103741.72;5038455;28;20581;-74
2022/01/18 03:08:35;;;;;;;40.25;9.13;;;;;;;6.50;83.85;103740.00;5041003;28;20049;-73
2022/01/18 03:11:03;;;;;;;37.72;8.98;;;;;;;6.48;83.66;103745.16;5038898;28;20038;-72
2022/01/18 03:13:30;;;;;;;34.17;9.05;;;;;;;6.47;83.76;103750.38;5050646;28;20045;-74
2022/01/18 03:15:57;;;;;;;32.13;9.90;;;;;;;6.47;83.84;103758.25;5042030;28;20458;-70
2022/01/18 03:18:25;;;;;;;35.47;9.63;;;;;;;6.47;83.89;103753.00;5035641;28;20069;-71
2022/01/18 03:20:52;;;;;;;29.60;8.45;;;;;;;6.47;83.86;103756.50;5035864;28;20863;-70
2022/01/18 03:23:21;;;;;;;39.00;9.45;;;;;;;6.47;83.78;103755.63;5037381;28;20042;-72
2022/01/18 03:25:55;;;;;;;35.05;9.80;;;;;;;6.47;83.73;103763.47;5035026;28;20089;-71
2022/01/18 03:28:25;;;;;;;46.65;9.90;;;;;;;6.47;83.83;103761.72;5036546;28;20045;-71
2022/01/18 03:30:57;;;;;;;46.35;10.25;;;;;;;6.45;83.71;103752.03;5035296;28;20085;-70
2022/01/18 03:33:30;;;;;;;34.05;9.88;;;;;;;6.44;83.90;103759.03;5037203;28;20070;-70
2022/01/18 03:35:57;;;;;;;38.35;9.85;;;;;;;6.43;83.93;103762.50;5036152;28;20050;-68
2022/01/18 03:38:29;;;;;;;35.03;10.32;;;;;;;6.42;83.99;103759.78;5033052;28;20523;-68
2022/01/18 03:41:03;;;;;;;36.15;9.43;;;;;;;6.40;83.92;103754.50;5031045;28;20041;-68
2022/01/18 03:43:34;;;;;;;50.47;11.88;;;;;;;6.41;83.99;103752.81;5035773;28;20049;-68
2022/01/18 03:46:05;;;;;;;34.15;10.52;;;;;;;6.40;84.09;103761.50;5038189;28;20054;-70
2022/01/18 03:48:36;;;;;;;42.13;11.02;;;;;;;6.39;84.13;103762.34;5036383;28;20064;-70
2022/01/18 03:51:07;;;;;;;38.85;9.82;;;;;;;6.39;84.25;103757.09;5032798;28;20489;-69
2022/01/18 03:53:34;;;;;;;41.67;10.55;;;;;;;6.39;84.10;103763.22;5035994;28;20042;-69
2022/01/18 03:56:02;;;;;;;46.83;11.63;;;;;;;6.39;84.20;103764.97;5036287;28;20393;-70
2022/01/18 03:58:30;;;;;;;35.10;11.25;;;;;;;6.36;83.95;103774.50;5036497;28;20530;-70
2022/01/18 04:00:57;;;;;;;47.97;11.60;;;;;;;6.33;84.11;103779.63;5036102;28;20050;-70
2022/01/18 04:03:27;;;;;;;53.30;11.50;;;;;;;6.31;84.28;103778.66;5036543;28;20046;-69
2022/01/18 04:05:56;;;;;;;44.35;11.48;;;;;;;6.28;84.32;103778.59;5036082;28;20122;-69
2022/01/18 04:08:25;;;;;;;53.22;11.85;;;;;;;6.26;84.41;103775.00;5036273;28;20046;-69
2022/01/18 04:10:52;;;;;;;39.05;11.52;;;;;;;6.26;84.46;103779.38;5035893;28;20793;-69
2022/01/18 04:13:19;;;;;;;40.53;11.18;;;;;;;6.24;84.42;103773.19;5036640;28;20046;-70
2022/01/18 04:15:46;;;;;;;38.17;11.48;;;;;;;6.24;84.57;103779.28;5035682;28;20045;-69
2022/01/18 04:18:25;;;;;;;46.40;10.90;;;;;;;6.24;84.52;103791.53;5031232;28;20046;-69
2022/01/18 04:29:00;;;;;;;36.13;11.65;;;;;;;6.17;84.80;103790.41;5037532;28;20046;-70
2022/01/18 04:31:28;;;;;;;45.55;12.35;;;;;;;6.18;84.92;103786.97;5028457;28;20045;-68
2022/01/18 04:33:57;;;;;;;43.38;12.48;;;;;;;6.19;84.86;103783.50;5042459;28;20045;-71
2022/01/18 04:36:26;;;;;;;40.20;12.40;;;;;;;6.21;84.86;103790.56;5035211;28;20165;-70
2022/01/18 04:38:54;;;;;;;41.05;12.43;;;;;;;6.23;84.78;103788.00;5035450;28;20116;-70
2022/01/18 04:41:27;;;;;;;33.53;12.07;;;;;;;6.24;84.95;103784.53;5026575;28;20392;-69
2022/01/18 04:49:14;;;;;;;54.70;13.75;;;;;;;6.29;84.66;103784.69;5034883;28;20038;-69
2022/01/18 04:51:44;;;;;;;57.75;14.55;;;;;;;6.30;84.86;103782.16;5033228;28;20038;-70
2022/01/18 04:54:12;;;;;;;62.47;15.45;;;;;;;6.30;84.63;103766.44;5034966;28;20061;-70
2022/01/18 04:59:11;;;;;;;74.10;15.43;;;;;;;6.28;84.63;103786.44;5034947;28;20133;-71
2022/01/18 05:01:42;;;;;;;68.88;15.30;;;;;;;6.24;84.90;103788.91;5038822;28;20045;-68
2022/01/18 05:04:10;;;;;;;73.68;15.48;;;;;;;6.20;84.76;103796.66;5035473;28;20056;-70
2022/01/18 05:06:38;;;;;;;80.20;16.55;;;;;;;6.19;84.84;103804.47;5034010;28;20041;-68
2022/01/18 05:09:08;;;;;;;63.75;15.60;;;;;;;6.20;84.92;103806.25;5036452;28;20046;-70
2022/01/18 05:11:47;;;;;;;57.53;14.98;;;;;;;6.16;84.90;103805.22;5033914;28;20042;-70
2022/01/18 05:17:13;;;;;;;73.28;16.92;;;;;;;6.18;84.98;103800.06;5030184;28;20042;-71
2022/01/18 05:19:45;;;;;;;83.05;16.73;;;;;;;6.19;84.89;103800.09;5035737;28;20046;-72
2022/01/18 05:25:00;;;;;;;105.63;18.55;;;;;;;6.16;85.02;103797.34;5031796;28;20073;-72
2022/01/18 05:27:27;;;;;;;104.90;17.92;;;;;;;6.13;85.11;103796.38;5036093;28;20096;-72
2022/01/18 05:29:54;;;;;;;84.75;19.55;;;;;;;6.09;85.09;103792.75;5034795;28;20042;-72
2022/01/18 05:32:21;;;;;;;95.53;19.25;;;;;;;6.09;85.02;103787.50;5031553;28;20045;-71
2022/01/18 05:34:48;;;;;;;86.03;19.02;;;;;;;6.12;85.13;103791.97;5032141;28;20117;-72
2022/01/18 05:37:16;;;;;;;86.90;17.48;;;;;;;6.13;85.20;103793.75;5034434;28;20034;-74
2022/01/18 05:39:44;;;;;;;81.85;17.10;;;;;;;6.15;85.27;103789.47;5035633;28;20089;-70
2022/01/18 05:42:11;;;;;;;94.05;18.17;;;;;;;6.16;85.24;103794.75;5023970;28;20097;-68
2022/01/18 05:44:38;;;;;;;129.20;18.65;;;;;;;6.16;85.22;103786.00;5033951;28;20050;-68
2022/01/18 05:47:05;;;;;;;113.60;18.67;;;;;;;6.12;85.46;103785.00;5034127;28;20195;-70
2022/01/18 05:49:33;;;;;;;108.70;20.38;;;;;;;6.10;85.24;103783.19;5034009;28;20042;-71
2022/01/18 05:52:00;;;;;;;99.13;19.50;;;;;;;6.09;85.14;103784.88;5032957;28;20057;-71
2022/01/18 05:54:27;;;;;;;125.97;20.95;;;;;;;6.11;85.33;103779.69;5034501;28;20045;-72
2022/01/18 05:56:54;;;;;;;128.15;21.88;;;;;;;6.11;85.37;103793.69;5034125;28;20049;-70
2022/01/18 05:59:23;;;;;;;91.63;19.65;;;;;;;6.12;85.14;103787.63;5030012;28;20096;-71
2022/01/18 06:02:01;;;;;;;103.45;18.85;;;;;;;6.13;85.34;103789.41;5032507;28;20046;-70
2022/01/18 06:07:15;;;;;;;151.38;20.65;;;;;;;6.08;85.57;103785.72;5033436;28;20054;-71
2022/01/18 06:09:42;;;;;;;132.18;20.45;;;;;;;6.06;85.61;103790.00;5031640;28;20590;-70
2022/01/18 06:12:09;;;;;;;107.40;18.27;;;;;;;6.06;85.70;103795.25;5030619;28;20046;-72
2022/01/18 06:14:36;;;;;;;125.05;20.63;;;;;;;6.07;85.73;103799.66;5034902;28;20045;-72
2022/01/18 06:17:04;;;;;;;101.70;20.25;;;;;;;6.07;85.71;103797.03;5034436;28;20526;-70
2022/01/18 06:19:31;;;;;;;132.85;21.83;;;;;;;6.10;85.91;103804.13;5034063;28;20044;-70
2022/01/18 06:21:58;;;;;;;130.63;20.75;;;;;;;6.10;85.68;103805.00;5034780;28;20049;-68
2022/01/18 06:24:25;;;;;;;102.80;19.55;;;;;;;6.12;85.84;103811.19;5032447;28;20036;-68
2022/01/18 06:27:07;;;;;;;96.15;19.85;;;;;;;6.12;85.77;103808.59;5032933;28;20030;-71
2022/01/18 06:29:35;;;;;;;109.32;20.13;;;;;;;6.13;85.82;103807.75;5032599;28;20116;-68
2022/01/18 06:32:05;;;;;;;80.88;19.25;;;;;;;6.12;85.56;103807.69;5030618;28;20108;-68
2022/01/18 06:34:32;;;;;;;90.53;19.42;;;;;;;6.10;85.65;103807.63;5032048;28;20046;-70
2022/01/18 06:37:00;;;;;;;126.30;20.88;;;;;;;6.10;85.78;103812.00;5032814;28;20092;-71
2022/01/18 06:39:28;;;;;;;92.93;20.92;;;;;;;6.10;85.76;103804.13;5031027;28;20053;-70
2022/01/18 06:41:56;;;;;;;83.07;19.35;;;;;;;6.11;85.70;103812.03;5028713;28;20477;-70
2022/01/18 06:44:24;;;;;;;82.53;21.30;;;;;;;6.13;85.83;103813.00;5031091;28;20045;-71
2022/01/18 06:46:53;;;;;;;94.15;20.13;;;;;;;6.15;85.71;103803.47;5029519;28;20113;-68
2022/01/18 06:49:20;;;;;;;89.95;18.70;;;;;;;6.16;85.73;103801.72;5031655;28;20042;-69
2022/01/18 06:51:47;;;;;;;76.53;19.52;;;;;;;6.16;85.92;103805.22;5032052;28;20140;-69
2022/01/18 06:54:17;;;;;;;98.47;20.15;;;;;;;6.16;85.64;103805.22;5027558;28;20038;-70
2022/01/18 06:56:48;;;;;;;86.18;19.73;;;;;;;6.15;85.63;103803.47;5026762;28;20046;-68
2022/01/18 06:59:18;;;;;;;71.68;19.30;;;;;;;6.11;85.58;103795.41;5031043;28;20049;-67
2022/01/18 07:01:47;;;;;;;80.55;19.50;;;;;;;6.08;85.63;103808.41;5014036;28;20053;-68
2022/01/18 07:04:15;;;;;;;68.38;18.23;;;;;;;6.04;85.73;103800.44;5029878;28;20042;-71
2022/01/18 07:06:45;;;;;;;78.38;20.77;;;;;;;6.06;85.84;103811.88;5027148;28;20053;-67
2022/01/18 07:09:15;;;;;;;72.28;20.23;;;;;;;6.09;85.70;103815.44;5034615;28;20148;-72
2022/01/18 07:11:43;;;;;;;68.95;19.15;;;;;;;6.09;85.68;103808.47;5057163;27;20141;-69
2022/01/18 07:14:10;;;;;;;65.88;19.30;;;;;;;6.09;85.67;103810.22;5053205;28;20502;-72
2022/01/18 07:16:39;;;;;;;61.35;18.90;;;;;;;6.11;85.59;103808.50;5057549;28;20033;-71
2022/01/18 07:19:07;;;;;;;60.20;19.45;;;;;;;6.10;85.70;103818.09;5075236;28;20041;-72
2022/01/18 07:21:34;;;;;;;73.78;20.73;;;;;;;6.09;85.65;103824.19;5074982;28;20385;-72
2022/01/18 07:24:16;;;;;;;64.50;19.13;;;;;;;6.07;85.75;103828.47;5063602;28;20134;-71
2022/01/18 07:26:46;;;;;;;71.88;20.33;;;;;;;6.06;85.69;103827.59;5067163;28;20048;-69
2022/01/18 07:29:14;;;;;;;90.53;21.42;;;;;;;6.07;85.55;103825.84;5055189;28;20234;-70
2022/01/18 07:31:42;;;;;;;91.65;21.05;;;;;;;6.06;85.61;103832.81;5055308;28;20037;-69
2022/01/18 07:34:13;;;;;;;89.05;22.25;;;;;;;6.05;85.51;103827.53;5059030;28;20589;-69
2022/01/18 07:36:40;;;;;;;97.38;22.50;;;;;;;6.03;85.60;103831.81;5060446;28;20467;-71
2022/01/18 07:39:07;;;;;;;81.13;21.05;;;;;;;6.03;85.58;103832.72;5056075;28;20482;-71
2022/01/18 07:41:35;;;;;;;70.88;21.17;;;;;;;6.04;85.74;103838.84;5056637;28;20053;-73
2022/01/18 07:44:03;;;;;;;93.88;21.60;;;;;;;6.05;85.79;103830.16;5048820;28;20565;-71
2022/01/18 07:46:31;;;;;;;76.65;21.63;;;;;;;6.05;85.78;103836.28;5059926;28;20059;-69
2022/01/18 07:48:58;;;;;;;84.93;22.10;;;;;;;6.06;85.90;103840.69;5072284;28;20049;-70
2022/01/18 07:51:25;;;;;;;82.90;21.75;;;;;;;6.08;85.78;103840.72;5081205;28;20045;-67
2022/01/18 07:53:52;;;;;;;82.90;20.92;;;;;;;6.11;85.73;103847.81;5054509;28;20124;-68
2022/01/18 07:56:19;;;;;;;82.35;22.17;;;;;;;6.14;85.78;103850.53;5057387;28;20045;-68
2022/01/18 07:58:46;;;;;;;80.00;21.48;;;;;;;6.16;85.77;103844.50;5053370;28;20045;-68
2022/01/18 08:01:14;;;;;;;85.03;22.25;;;;;;;6.19;85.70;103836.78;5062166;28;21016;-67
2022/01/18 08:03:41;;;;;;;63.50;21.33;;;;;;;6.20;85.56;103838.56;5066071;28;20499;-67
2022/01/18 08:06:08;;;;;;;71.00;20.27;;;;;;;6.22;85.45;103836.91;5083246;28;20049;-68
2022/01/18 08:08:37;;;;;;;66.43;20.45;;;;;;;6.23;85.43;103845.63;5051159;28;20107;-68
2022/01/18 08:11:04;;;;;;;67.20;20.75;;;;;;;6.23;85.32;103837.78;5059181;28;20045;-70
2022/01/18 08:13:38;;;;;;;69.93;20.63;;;;;;;6.25;85.32;103851.81;5061942;28;20045;-69
2022/01/18 08:16:45;;;;;;;77.22;20.65;;;;;;;6.26;85.33;103845.75;5058933;28;20099;-69
2022/01/18 08:19:10;;;;;;;61.28;19.67;;;;;;;6.27;85.38;103850.16;5077912;28;20067;-70
2022/01/18 08:21:40;;;;;;;64.05;21.17;;;;;;;6.28;85.10;103848.41;5065233;28;20052;-70
2022/01/18 08:24:12;;;;;;;58.33;19.98;;;;;;;6.28;85.13;103854.56;5050780;28;20065;-69
2022/01/18 08:26:39;;;;;;;72.82;21.08;;;;;;;6.29;85.22;103847.59;5066794;28;20045;-72
2022/01/18 08:29:06;;;;;;;64.10;19.85;;;;;;;6.29;85.22;103843.25;5057870;28;20037;-69
2022/01/18 08:31:33;;;;;;;64.65;21.42;;;;;;;6.30;85.04;103844.13;5055856;28;20957;-68
2022/01/18 08:34:00;;;;;;;56.42;21.73;;;;;;;6.28;84.88;103840.56;5053662;28;20042;-71
2022/01/18 08:36:27;;;;;;;57.75;20.65;;;;;;;6.27;84.91;103837.06;5057411;28;20045;-69
2022/01/18 08:38:55;;;;;;;70.15;21.25;;;;;;;6.29;84.97;103834.47;5063573;28;20116;-70
2022/01/18 08:41:22;;;;;;;67.55;21.65;;;;;;;6.29;84.90;103838.00;5059965;28;20499;-71
2022/01/18 08:43:49;;;;;;;66.32;23.00;;;;;;;6.31;84.84;103843.28;5054662;28;20351;-71
2022/01/18 08:46:17;;;;;;;73.95;21.20;;;;;;;6.33;84.94;103837.25;5065306;28;20037;-70
2022/01/18 08:48:44;;;;;;;72.90;21.50;;;;;;;6.35;84.90;103842.56;5056604;28;20128;-71
2022/01/18 08:51:12;;;;;;;69.38;20.95;;;;;;;6.36;84.72;103846.94;5049936;28;20044;-72
2022/01/18 08:53:40;;;;;;;63.33;20.00;;;;;;;6.36;84.64;103845.25;5059024;28;20099;-71
2022/01/18 08:56:07;;;;;;;71.10;20.67;;;;;;;6.35;84.77;103848.69;5053643;28;20456;-71
2022/01/18 08:58:35;;;;;;;68.00;21.92;;;;;;;6.35;84.63;103853.06;5063303;28;20095;-71
2022/01/18 09:01:06;;;;;;;59.88;19.73;;;;;;;6.40;84.80;103851.47;5056982;28;20708;-72
2022/01/18 09:03:33;;;;;;;58.60;19.15;;;;;;;6.43;84.66;103850.69;5061982;28;20037;-71
2022/01/18 09:06:03;;;;;;;61.50;18.75;;;;;;;6.42;84.53;103847.19;5060213;28;20131;-70
2022/01/18 09:08:31;;;;;;;50.15;18.77;;;;;;;6.42;84.45;103851.53;5052892;28;20040;-69
2022/01/18 09:10:58;;;;;;;42.45;18.00;;;;;;;6.41;84.31;103852.38;5043700;28;20041;-69
2022/01/18 09:13:28;;;;;;;41.38;17.75;;;;;;;6.41;84.35;103847.16;5051092;28;20516;-70
2022/01/18 09:15:55;;;;;;;49.28;18.92;;;;;;;6.43;84.37;103859.47;5083350;28;20117;-69
2022/01/18 09:18:28;;;;;;;57.58;18.80;;;;;;;6.38;84.36;103855.75;5055127;28;20507;-71
2022/01/18 09:20:59;;;;;;;55.35;18.73;;;;;;;6.35;84.14;103866.16;5052414;28;20046;-70
2022/01/18 09:23:31;;;;;;;63.38;19.88;;;;;;;6.32;84.32;103864.31;5070795;28;20045;-67
2022/01/18 09:26:01;;;;;;;56.60;20.00;;;;;;;6.31;84.42;103857.28;5060489;28;20475;-70
2022/01/18 09:28:28;;;;;;;52.72;19.45;;;;;;;6.34;84.40;103864.38;5049589;28;20049;-70
2022/01/18 09:31:00;;;;;;;50.88;20.05;;;;;;;6.36;84.46;103867.91;5060074;28;20049;-68
2022/01/18 09:33:28;;;;;;;50.53;18.48;;;;;;;6.40;84.42;103863.69;5086326;28;20038;-68
2022/01/18 09:35:55;;;;;;;44.40;17.33;;;;;;;6.45;84.25;103864.75;5068725;28;20034;-68
2022/01/18 09:38:22;;;;;;;46.33;16.83;;;;;;;6.48;83.80;103857.88;5047901;28;20577;-69
2022/01/18 09:40:49;;;;;;;44.33;17.88;;;;;;;6.48;83.65;103864.88;5068114;28;20042;-68
2022/01/18 09:43:17;;;;;;;45.13;17.60;;;;;;;6.48;83.84;103870.97;5066726;28;20960;-67
2022/01/18 09:45:45;;;;;;;42.05;17.05;;;;;;;6.53;83.79;103869.44;5047857;28;20403;-71
2022/01/18 09:48:19;;;;;;;45.47;17.88;;;;;;;6.55;83.82;103873.84;5049349;28;20076;-70
2022/01/18 09:50:50;;;;;;;58.08;19.30;;;;;;;6.53;83.46;103869.44;5050485;28;20949;-69
2022/01/18 09:53:22;;;;;;;66.88;19.70;;;;;;;6.51;83.59;103873.72;5049790;28;20041;-69
2022/01/18 09:55:51;;;;;;;51.17;19.55;;;;;;;6.52;83.66;103877.22;5046724;28;20057;-67
2022/01/18 09:58:22;;;;;;;51.80;18.75;;;;;;;6.55;83.86;103881.69;5041799;28;20045;-71
2022/01/18 10:00:52;;;;;;;49.05;18.58;;;;;;;6.59;83.88;103888.81;5082439;28;20041;-71
2022/01/18 10:03:32;;;;;;;54.60;18.73;;;;;;;6.63;83.63;103891.59;5055554;28;20510;-70
2022/01/18 10:06:05;;;;;;;43.58;18.27;;;;;;;6.62;83.36;103888.94;5050137;28;20413;-71
2022/01/18 10:08:47;;;;;;;52.10;19.23;;;;;;;6.64;83.60;103889.88;5048739;28;20068;-70
2022/01/18 10:11:17;;;;;;;49.90;18.90;;;;;;;6.69;83.59;103885.69;5060743;28;20073;-68
2022/01/18 10:13:49;;;;;;;53.42;19.08;;;;;;;6.72;83.56;103888.41;5058475;28;20045;-69
2022/01/18 10:16:23;;;;;;;43.60;18.10;;;;;;;6.75;83.40;103885.91;5051116;28;20049;-71
2022/01/18 10:19:03;;;;;;;43.47;18.30;;;;;;;6.75;83.15;103885.00;5054453;28;20041;-70
2022/01/18 10:21:35;;;;;;;52.50;19.35;;;;;;;6.74;83.14;103889.38;5053144;28;20049;-71
2022/01/18 10:24:21;;;;;;;56.67;20.33;;;;;;;6.78;83.24;103893.84;5062489;28;20047;-68
2022/01/18 10:26:54;;;;;;;53.58;19.63;;;;;;;6.78;83.00;103883.38;5054755;28;20042;-69
2022/01/18 10:29:34;;;;;;;49.60;19.25;;;;;;;6.81;82.97;103883.50;5056858;28;20029;-70
2022/01/18 10:32:41;;;;;;;56.15;20.80;;;;;;;6.81;82.91;103880.00;5055341;28;20052;-70
2022/01/18 10:37:29;;;;;;;54.33;21.20;;;;;;;6.90;83.13;103884.63;5043253;28;20045;-69
2022/01/18 10:40:08;;;;;;;54.83;20.63;;;;;;;6.93;82.91;103872.50;5047339;28;20076;-69
2022/01/18 10:42:49;;;;;;;56.60;20.13;;;;;;;6.92;82.53;103877.72;5046883;28;20096;-72
2022/01/18 10:45:33;;;;;;;60.55;21.48;;;;;;;6.93;82.64;103867.25;5050803;28;20048;-71
2022/01/18 10:48:11;;;;;;;62.22;22.40;;;;;;;6.93;82.87;103866.38;5056207;28;20060;-71
2022/01/18 10:50:42;;;;;;;62.17;20.35;;;;;;;6.97;82.64;103866.53;5059852;28;20164;-71
2022/01/18 10:53:25;;;;;;;66.70;20.83;;;;;;;6.95;82.57;103862.97;5060777;28;20535;-68
2022/01/18 10:56:14;;;;;;;62.33;20.73;;;;;;;6.95;82.66;103862.97;5061523;28;20045;-70
2022/01/18 10:58:55;;;;;;;63.20;21.30;;;;;;;6.94;82.68;103865.53;5057542;28;20833;-71
2022/01/18 11:01:23;;;;;;;64.20;22.00;;;;;;;6.96;82.77;103867.38;5064504;28;20099;-71
2022/01/18 11:04:11;;;;;;;63.78;22.20;;;;;;;7.01;82.87;103862.28;5060336;28;20053;-71
2022/01/18 11:06:42;;;;;;;61.53;21.67;;;;;;;7.03;82.56;103860.59;5054632;28;20077;-71
2022/01/18 11:09:15;;;;;;;67.68;21.45;;;;;;;7.04;82.35;103856.22;5055829;28;20053;-70
2022/01/18 11:11:46;;;;;;;63.22;22.13;;;;;;;7.08;82.59;103852.88;5066974;28;20048;-72
2022/01/18 11:14:18;;;;;;;65.63;21.08;;;;;;;7.12;82.50;103858.28;5054427;28;20076;-71
2022/01/18 11:16:48;;;;;;;63.67;21.23;;;;;;;7.15;82.09;103849.59;5057919;28;20037;-70
2022/01/18 11:21:48;;;;;;;61.42;21.08;;;;;;;7.18;81.86;103846.19;5058286;28;20036;-69
2022/01/18 11:24:18;;;;;;;61.75;21.65;;;;;;;7.18;82.03;103843.56;5062370;28;20041;-70
2022/01/18 11:26:50;;;;;;;67.40;22.00;;;;;;;7.22;81.98;103834.94;5054719;28;20061;-71
2022/01/18 11:29:23;;;;;;;63.30;20.98;;;;;;;7.28;81.92;103829.88;5062622;28;20464;-70
2022/01/18 11:31:55;;;;;;;67.53;21.00;;;;;;;7.32;81.83;103829.16;5053379;28;20037;-70
2022/01/18 11:34:54;;;;;;;70.43;22.42;;;;;;;7.36;81.53;103832.75;5056185;28;20077;-68
2022/01/18 11:37:33;;;;;;;65.57;21.58;;;;;;;7.41;81.78;103831.19;5046541;28;20037;-70
2022/01/18 11:40:11;;;;;;;73.45;23.35;;;;;;;7.42;81.53;103831.22;5047812;28;20046;-72
2022/01/18 11:42:52;;;;;;;64.60;22.20;;;;;;;7.45;81.51;103836.56;5052825;28;20085;-68
2022/01/18 11:45:41;;;;;;;62.55;20.33;;;;;;;7.46;81.34;103843.59;5050801;28;20037;-69
2022/01/18 11:48:23;;;;;;;56.20;21.40;;;;;;;7.50;81.46;103830.56;5061992;28;20053;-70
2022/01/18 11:51:17;;;;;;;61.85;21.77;;;;;;;7.58;81.35;103831.69;5052183;28;20867;-67
2022/01/18 11:53:55;;;;;;;54.63;21.08;;;;;;;7.60;81.04;103836.16;5052189;27;20041;-68
2022/01/18 11:56:37;;;;;;;54.70;21.33;;;;;;;7.61;80.85;103840.56;5051397;28;20049;-68
2022/01/18 11:59:27;;;;;;;57.38;21.13;;;;;;;7.58;80.49;103837.84;5057482;28;20045;-69
2022/01/18 12:02:00;;;;;;;61.92;19.73;;;;;;;7.56;80.55;103836.00;5061067;28;20025;-69
2022/01/18 12:04:49;;;;;;;65.88;22.10;;;;;;;7.55;80.48;103829.84;5054092;28;20049;-67
2022/01/18 12:07:34;;;;;;;54.15;21.00;;;;;;;7.57;80.58;103832.53;5037040;28;20046;-68
2022/01/18 12:10:26;;;;;;;52.50;21.10;;;;;;;7.57;80.55;103833.41;5051504;28;20042;-68
2022/01/18 12:12:55;;;;;;;55.17;21.13;;;;;;;7.61;80.63;103834.41;5063019;28;20034;-71
2022/01/18 12:15:23;;;;;;;55.92;20.95;;;;;;;7.63;80.63;103832.72;5052593;28;20044;-69
2022/01/18 12:17:59;;;;;;;57.28;20.80;;;;;;;7.66;80.64;103830.19;5046943;28;20041;-70
2022/01/18 12:20:32;;;;;;;51.75;21.02;;;;;;;7.69;80.76;103821.50;5051950;28;20053;-71
2022/01/18 12:23:26;;;;;;;56.53;21.20;;;;;;;7.74;80.57;103814.63;5046743;28;20042;-69
2022/01/18 12:26:26;;;;;;;55.05;21.23;;;;;;;7.76;80.33;103813.84;5050637;28;20044;-68
2022/01/18 12:34:32;;;;;;;57.97;21.33;;;;;;;7.91;80.15;103818.66;5058635;28;20045;-69
2022/01/18 12:37:17;;;;;;;55.47;20.83;;;;;;;7.97;79.96;103815.31;5081379;28;20065;-68
2022/01/18 12:39:54;;;;;;;53.55;21.70;;;;;;;7.99;79.75;103808.34;5049691;28;20045;-68
2022/01/18 12:45:03;;;;;;;53.10;20.10;;;;;;;8.02;79.36;103800.56;5046108;28;20161;-70
2022/01/18 12:47:37;;;;;;;51.60;20.50;;;;;;;8.04;78.98;103804.13;5053665;28;20045;-70